sensor_id;sensor_type;location;lat;lon;timestamp;pressure;altitude;pressure_sealevel;temperature;humidity
20710;BME280;10516;51.518;9.864;2024-02-23T00:01:24;95891.41;;;7.06;84.98
20710;BME280;10516;51.518;9.864;2024-02-23T00:03:50;95866.50;;;6.94;85.19
20710;BME280;10516;51.518;9.864;2024-02-23T00:06:15;95901.22;;;7.06;84.42
20710;BME280;10516;51.518;9.864;2024-02-23T00:08:41;95924.81;;;7.07;84.42
20710;BME280;10516;51.518;9.864;2024-02-23T00:11:07;95912.44;;;7.03;85.07
20710;BME280;10516;51.518;9.864;2024-02-23T00:13:33;95911.66;;;6.75;82.76
20710;BME280;10516;51.518;9.864;2024-02-23T00:15:58;95916.28;;;6.97;84.84
20710;BME280;10516;51.518;9.864;2024-02-23T00:18:23;95935.69;;;7.06;84.56
20710;BME280;10516;51.518;9.864;2024-02-23T00:20:49;95912.44;;;6.75;83.04
20710;BME280;10516;51.518;9.864;2024-02-23T00:23:14;95912.06;;;6.82;84.14
20710;BME280;10516;51.518;9.864;2024-02-23T00:25:41;95932.69;;;6.85;83.11
20710;BME280;10516;51.518;9.864;2024-02-23T00:28:06;95913.06;;;6.72;83.58
20710;BME280;10516;51.518;9.864;2024-02-23T00:30:32;95915.00;;;6.67;82.62
20710;BME280;10516;51.518;9.864;2024-02-23T00:32:58;95912.84;;;6.69;83.12
20710;BME280;10516;51.518;9.864;2024-02-23T00:35:23;95960.56;;;6.82;82.17
20710;BME280;10516;51.518;9.864;2024-02-23T00:37:49;95945.94;;;6.71;82.79
20710;BME280;10516;51.518;9.864;2024-02-23T00:40:14;95961.75;;;6.76;81.76
20710;BME280;10516;51.518;9.864;2024-02-23T00:42:39;95889.78;;;6.29;81.59
20710;BME280;10516;51.518;9.864;2024-02-23T00:45:05;95940.72;;;6.53;80.80
20710;BME280;10516;51.518;9.864;2024-02-23T00:47:31;95974.50;;;6.74;81.19
20710;BME280;10516;51.518;9.864;2024-02-23T00:49:56;95995.31;;;6.81;81.48
20710;BME280;10516;51.518;9.864;2024-02-23T00:52:22;95970.97;;;6.65;81.52
20710;BME280;10516;51.518;9.864;2024-02-23T00:54:47;96016.53;;;6.81;82.31
20710;BME280;10516;51.518;9.864;2024-02-23T00:57:13;96039.41;;;6.77;81.79
20710;BME280;10516;51.518;9.864;2024-02-23T00:59:38;96048.22;;;6.86;80.81
20710;BME280;10516;51.518;9.864;2024-02-23T01:02:03;96107.03;;;6.74;81.70
20710;BME280;10516;51.518;9.864;2024-02-23T01:04:30;96073.72;;;6.55;81.11
20710;BME280;10516;51.518;9.864;2024-02-23T01:06:55;96079.66;;;6.47;81.70
20710;BME280;10516;51.518;9.864;2024-02-23T01:09:20;96093.81;;;6.56;81.61
20710;BME280;10516;51.518;9.864;2024-02-23T01:11:47;96068.94;;;6.38;81.27
20710;BME280;10516;51.518;9.864;2024-02-23T01:14:13;96088.81;;;6.54;80.97
20710;BME280;10516;51.518;9.864;2024-02-23T01:16:38;96111.25;;;6.43;80.67
20710;BME280;10516;51.518;9.864;2024-02-23T01:19:04;96142.22;;;6.43;80.43
20710;BME280;10516;51.518;9.864;2024-02-23T01:21:29;96100.31;;;6.13;79.51
20710;BME280;10516;51.518;9.864;2024-02-23T01:23:55;96147.34;;;6.39;79.70
20710;BME280;10516;51.518;9.864;2024-02-23T01:26:23;96122.28;;;6.13;78.85
20710;BME280;10516;51.518;9.864;2024-02-23T01:28:48;96162.94;;;6.41;78.91
20710;BME280;10516;51.518;9.864;2024-02-23T01:31:13;96137.00;;;6.38;79.18
20710;BME280;10516;51.518;9.864;2024-02-23T01:33:39;96069.75;;;5.83;77.97
20710;BME280;10516;51.518;9.864;2024-02-23T01:36:07;96169.53;;;6.43;78.37
20710;BME280;10516;51.518;9.864;2024-02-23T01:38:34;96157.13;;;6.39;79.32
20710;BME280;10516;51.518;9.864;2024-02-23T01:41:00;96171.38;;;6.43;79.02
20710;BME280;10516;51.518;9.864;2024-02-23T01:43:25;96170.69;;;6.37;79.02
20710;BME280;10516;51.518;9.864;2024-02-23T01:45:51;96192.00;;;6.46;78.63
20710;BME280;10516;51.518;9.864;2024-02-23T01:48:17;96191.50;;;6.44;78.43
20710;BME280;10516;51.518;9.864;2024-02-23T01:50:43;96172.81;;;6.35;78.42
20710;BME280;10516;51.518;9.864;2024-02-23T01:53:10;96195.03;;;6.39;77.86
20710;BME280;10516;51.518;9.864;2024-02-23T01:55:37;96220.00;;;6.52;78.02
20710;BME280;10516;51.518;9.864;2024-02-23T01:58:05;96210.13;;;6.39;78.25
20710;BME280;10516;51.518;9.864;2024-02-23T02:00:31;96216.47;;;6.38;77.60
20710;BME280;10516;51.518;9.864;2024-02-23T02:02:57;96226.00;;;6.39;77.74
20710;BME280;10516;51.518;9.864;2024-02-23T02:05:23;96224.16;;;6.39;77.79
20710;BME280;10516;51.518;9.864;2024-02-23T02:07:50;96240.84;;;6.40;78.53
20710;BME280;10516;51.518;9.864;2024-02-23T02:10:19;96222.91;;;6.32;78.27
20710;BME280;10516;51.518;9.864;2024-02-23T02:12:45;96251.66;;;6.43;78.28
20710;BME280;10516;51.518;9.864;2024-02-23T02:15:10;96227.44;;;6.31;77.11
20710;BME280;10516;51.518;9.864;2024-02-23T02:17:36;96237.41;;;6.39;78.07
20710;BME280;10516;51.518;9.864;2024-02-23T02:20:05;96235.38;;;6.31;78.23
20710;BME280;10516;51.518;9.864;2024-02-23T02:22:35;96244.19;;;6.27;78.22
20710;BME280;10516;51.518;9.864;2024-02-23T02:25:01;96269.09;;;6.26;77.26
20710;BME280;10516;51.518;9.864;2024-02-23T02:27:26;96253.19;;;6.26;77.85
20710;BME280;10516;51.518;9.864;2024-02-23T02:29:51;96274.69;;;6.43;77.29
20710;BME280;10516;51.518;9.864;2024-02-23T02:32:17;96288.28;;;6.36;77.26
20710;BME280;10516;51.518;9.864;2024-02-23T02:34:43;96256.84;;;6.30;76.82
20710;BME280;10516;51.518;9.864;2024-02-23T02:37:08;96268.19;;;6.35;77.76
20710;BME280;10516;51.518;9.864;2024-02-23T02:39:34;96301.53;;;6.36;77.40
20710;BME280;10516;51.518;9.864;2024-02-23T02:41:59;96308.34;;;6.42;78.05
20710;BME280;10516;51.518;9.864;2024-02-23T02:44:24;96311.44;;;6.49;77.92
20710;BME280;10516;51.518;9.864;2024-02-23T02:46:51;96311.22;;;6.46;78.36
20710;BME280;10516;51.518;9.864;2024-02-23T02:49:17;96321.84;;;6.46;78.44
20710;BME280;10516;51.518;9.864;2024-02-23T02:51:42;96309.28;;;6.33;79.66
20710;BME280;10516;51.518;9.864;2024-02-23T02:54:08;96310.06;;;6.33;79.22
20710;BME280;10516;51.518;9.864;2024-02-23T02:56:33;96328.47;;;6.43;80.39
20710;BME280;10516;51.518;9.864;2024-02-23T02:58:58;96320.44;;;6.30;79.90
20710;BME280;10516;51.518;9.864;2024-02-23T03:01:24;96307.53;;;6.23;79.30
20710;BME280;10516;51.518;9.864;2024-02-23T03:03:49;96309.19;;;6.38;80.30
20710;BME280;10516;51.518;9.864;2024-02-23T03:06:15;96325.72;;;6.30;80.51
20710;BME280;10516;51.518;9.864;2024-02-23T03:08:43;96319.91;;;6.28;81.10
20710;BME280;10516;51.518;9.864;2024-02-23T03:11:09;96340.59;;;6.49;80.46
20710;BME280;10516;51.518;9.864;2024-02-23T03:13:34;96329.50;;;6.00;80.31
20710;BME280;10516;51.518;9.864;2024-02-23T03:15:59;96341.31;;;6.07;79.56
20710;BME280;10516;51.518;9.864;2024-02-23T03:18:25;96347.91;;;6.10;80.49
20710;BME280;10516;51.518;9.864;2024-02-23T03:20:52;96353.28;;;6.29;80.57
20710;BME280;10516;51.518;9.864;2024-02-23T03:23:18;96364.59;;;6.11;79.52
20710;BME280;10516;51.518;9.864;2024-02-23T03:25:43;96362.75;;;6.11;80.00
20710;BME280;10516;51.518;9.864;2024-02-23T03:28:08;96383.28;;;6.24;79.37
20710;BME280;10516;51.518;9.864;2024-02-23T03:30:34;96350.28;;;5.83;78.99
20710;BME280;10516;51.518;9.864;2024-02-23T03:32:59;96375.88;;;6.21;79.18
20710;BME280;10516;51.518;9.864;2024-02-23T03:35:24;96386.91;;;6.04;78.21
20710;BME280;10516;51.518;9.864;2024-02-23T03:37:50;96366.22;;;6.07;79.32
20710;BME280;10516;51.518;9.864;2024-02-23T03:40:15;96379.19;;;6.08;78.95
20710;BME280;10516;51.518;9.864;2024-02-23T03:42:43;96389.75;;;6.13;78.20
20710;BME280;10516;51.518;9.864;2024-02-23T03:45:08;96393.69;;;6.16;79.22
20710;BME280;10516;51.518;9.864;2024-02-23T03:47:34;96377.69;;;5.97;77.75
20710;BME280;10516;51.518;9.864;2024-02-23T03:49:59;96359.56;;;5.80;77.44
20710;BME280;10516;51.518;9.864;2024-02-23T03:52:25;96402.84;;;5.99;78.00
20710;BME280;10516;51.518;9.864;2024-02-23T03:54:50;96405.19;;;6.01;79.05
20710;BME280;10516;51.518;9.864;2024-02-23T03:57:17;96404.53;;;5.85;78.66
20710;BME280;10516;51.518;9.864;2024-02-23T03:59:51;96419.03;;;5.93;78.92
20710;BME280;10516;51.518;9.864;2024-02-23T04:02:17;96426.69;;;5.94;78.70
20710;BME280;10516;51.518;9.864;2024-02-23T04:04:43;96383.19;;;5.38;78.42
20710;BME280;10516;51.518;9.864;2024-02-23T04:07:08;96416.47;;;5.83;78.51
20710;BME280;10516;51.518;9.864;2024-02-23T04:09:34;96438.59;;;5.97;78.08
20710;BME280;10516;51.518;9.864;2024-02-23T04:11:59;96431.19;;;5.60;78.29
20710;BME280;10516;51.518;9.864;2024-02-23T04:14:24;96454.84;;;5.80;78.56
20710;BME280;10516;51.518;9.864;2024-02-23T04:16:50;96438.31;;;5.60;77.88
20710;BME280;10516;51.518;9.864;2024-02-23T04:19:15;96433.94;;;5.79;77.56
20710;BME280;10516;51.518;9.864;2024-02-23T04:21:41;96417.75;;;5.52;77.20
20710;BME280;10516;51.518;9.864;2024-02-23T04:24:06;96441.69;;;5.70;78.34
20710;BME280;10516;51.518;9.864;2024-02-23T04:26:33;96430.50;;;5.40;76.89
20710;BME280;10516;51.518;9.864;2024-02-23T04:28:59;96461.81;;;5.66;78.08
20710;BME280;10516;51.518;9.864;2024-02-23T04:31:24;96436.28;;;5.47;77.89
20710;BME280;10516;51.518;9.864;2024-02-23T04:33:50;96465.03;;;5.63;77.31
20710;BME280;10516;51.518;9.864;2024-02-23T04:36:19;96455.41;;;5.39;78.47
20710;BME280;10516;51.518;9.864;2024-02-23T04:38:45;96481.16;;;5.67;77.44
20710;BME280;10516;51.518;9.864;2024-02-23T04:41:10;96478.19;;;5.73;77.16
20710;BME280;10516;51.518;9.864;2024-02-23T04:43:35;96484.84;;;5.66;76.81
20710;BME280;10516;51.518;9.864;2024-02-23T04:46:01;96481.38;;;5.70;77.80
20710;BME280;10516;51.518;9.864;2024-02-23T04:48:26;96497.25;;;5.70;77.42
20710;BME280;10516;51.518;9.864;2024-02-23T04:50:52;96492.47;;;5.72;76.90
20710;BME280;10516;51.518;9.864;2024-02-23T04:53:17;96465.47;;;5.31;76.43
20710;BME280;10516;51.518;9.864;2024-02-23T04:55:43;96486.97;;;5.64;77.02
20710;BME280;10516;51.518;9.864;2024-02-23T04:58:08;96510.25;;;5.67;77.18
20710;BME280;10516;51.518;9.864;2024-02-23T05:00:33;96515.53;;;5.72;76.51
20710;BME280;10516;51.518;9.864;2024-02-23T05:03:00;96524.59;;;5.61;76.59
20710;BME280;10516;51.518;9.864;2024-02-23T05:05:28;96520.59;;;5.63;76.84
20710;BME280;10516;51.518;9.864;2024-02-23T05:07:54;96524.88;;;5.54;76.52
20710;BME280;10516;51.518;9.864;2024-02-23T05:10:19;96467.63;;;5.24;76.61
20710;BME280;10516;51.518;9.864;2024-02-23T05:12:44;96528.66;;;5.38;76.11
20710;BME280;10516;51.518;9.864;2024-02-23T05:15:10;96531.97;;;5.64;77.15
20710;BME280;10516;51.518;9.864;2024-02-23T05:17:35;96538.75;;;5.85;76.94
20710;BME280;10516;51.518;9.864;2024-02-23T05:20:00;96499.22;;;5.55;76.06
20710;BME280;10516;51.518;9.864;2024-02-23T05:22:31;96537.94;;;5.36;75.62
20710;BME280;10516;51.518;9.864;2024-02-23T05:24:57;96559.72;;;5.71;77.41
20710;BME280;10516;51.518;9.864;2024-02-23T05:27:22;96545.59;;;5.37;76.34
20710;BME280;10516;51.518;9.864;2024-02-23T05:29:47;96540.88;;;5.29;75.84
20710;BME280;10516;51.518;9.864;2024-02-23T05:32:13;96557.16;;;5.56;75.92
20710;BME280;10516;51.518;9.864;2024-02-23T05:34:39;96533.44;;;5.31;75.26
20710;BME280;10516;51.518;9.864;2024-02-23T05:37:04;96493.38;;;5.04;75.46
20710;BME280;10516;51.518;9.864;2024-02-23T05:39:30;96559.53;;;5.53;74.77
20710;BME280;10516;51.518;9.864;2024-02-23T05:41:56;96545.09;;;5.30;75.65
20710;BME280;10516;51.518;9.864;2024-02-23T05:44:22;96580.44;;;5.54;75.34
20710;BME280;10516;51.518;9.864;2024-02-23T05:46:47;96579.13;;;5.47;74.34
20710;BME280;10516;51.518;9.864;2024-02-23T05:49:25;96555.34;;;5.47;75.99
20710;BME280;10516;51.518;9.864;2024-02-23T05:51:51;96511.03;;;5.18;75.43
20710;BME280;10516;51.518;9.864;2024-02-23T05:54:17;96582.28;;;5.54;75.71
20710;BME280;10516;51.518;9.864;2024-02-23T05:56:44;96581.19;;;5.60;75.64
20710;BME280;10516;51.518;9.864;2024-02-23T05:59:10;96581.16;;;5.70;74.94
20710;BME280;10516;51.518;9.864;2024-02-23T06:01:35;96580.66;;;5.68;75.93
20710;BME280;10516;51.518;9.864;2024-02-23T06:04:01;96538.84;;;5.11;74.23
20710;BME280;10516;51.518;9.864;2024-02-23T06:06:26;96601.66;;;5.39;74.87
20710;BME280;10516;51.518;9.864;2024-02-23T06:08:52;96583.00;;;5.74;76.88
20710;BME280;10516;51.518;9.864;2024-02-23T06:11:17;96579.88;;;5.62;76.39
20710;BME280;10516;51.518;9.864;2024-02-23T06:13:47;96596.66;;;5.32;75.16
20710;BME280;10516;51.518;9.864;2024-02-23T06:16:12;96575.81;;;5.16;76.71
20710;BME280;10516;51.518;9.864;2024-02-23T06:18:38;96608.19;;;5.62;77.03
20710;BME280;10516;51.518;9.864;2024-02-23T06:21:15;96595.63;;;5.23;76.03
20710;BME280;10516;51.518;9.864;2024-02-23T06:23:43;96609.59;;;5.39;76.36
20710;BME280;10516;51.518;9.864;2024-02-23T06:26:08;96616.97;;;5.52;77.18
20710;BME280;10516;51.518;9.864;2024-02-23T06:28:33;96610.06;;;5.56;77.28
20710;BME280;10516;51.518;9.864;2024-02-23T06:30:59;96619.56;;;5.62;76.10
20710;BME280;10516;51.518;9.864;2024-02-23T06:33:24;96616.41;;;5.60;76.00
20710;BME280;10516;51.518;9.864;2024-02-23T06:35:50;96627.09;;;5.35;75.98
20710;BME280;10516;51.518;9.864;2024-02-23T06:38:16;96597.44;;;5.33;77.39
20710;BME280;10516;51.518;9.864;2024-02-23T06:40:41;96610.88;;;5.47;77.39
20710;BME280;10516;51.518;9.864;2024-02-23T06:43:07;96589.78;;;5.31;76.89
20710;BME280;10516;51.518;9.864;2024-02-23T06:45:32;96525.63;;;5.11;77.35
20710;BME280;10516;51.518;9.864;2024-02-23T06:47:57;96636.75;;;5.70;76.16
20710;BME280;10516;51.518;9.864;2024-02-23T06:50:23;96623.00;;;5.63;76.87
20710;BME280;10516;51.518;9.864;2024-02-23T06:52:48;96629.16;;;5.38;76.35
20710;BME280;10516;51.518;9.864;2024-02-23T06:55:15;96627.16;;;5.00;78.50
20710;BME280;10516;51.518;9.864;2024-02-23T06:57:42;96654.09;;;5.22;78.57
20710;BME280;10516;51.518;9.864;2024-02-23T07:00:08;96603.03;;;5.21;78.21
20710;BME280;10516;51.518;9.864;2024-02-23T07:02:33;96671.25;;;5.24;78.02
20710;BME280;10516;51.518;9.864;2024-02-23T07:05:02;96648.53;;;5.13;79.47
20710;BME280;10516;51.518;9.864;2024-02-23T07:07:30;96674.94;;;5.39;78.23
20710;BME280;10516;51.518;9.864;2024-02-23T07:09:56;96636.94;;;5.04;77.58
20710;BME280;10516;51.518;9.864;2024-02-23T07:12:21;96667.34;;;5.02;78.09
20710;BME280;10516;51.518;9.864;2024-02-23T07:14:46;96654.63;;;5.19;78.67
20710;BME280;10516;51.518;9.864;2024-02-23T07:17:12;96675.50;;;5.20;78.01
20710;BME280;10516;51.518;9.864;2024-02-23T07:19:37;96702.38;;;5.63;78.15
20710;BME280;10516;51.518;9.864;2024-02-23T07:22:03;96700.03;;;5.51;77.66
20710;BME280;10516;51.518;9.864;2024-02-23T07:24:28;96680.50;;;5.37;78.16
20710;BME280;10516;51.518;9.864;2024-02-23T07:26:54;96719.03;;;5.73;78.16
20710;BME280;10516;51.518;9.864;2024-02-23T07:29:19;96711.66;;;5.65;77.46
20710;BME280;10516;51.518;9.864;2024-02-23T07:31:45;96713.00;;;5.43;78.60
20710;BME280;10516;51.518;9.864;2024-02-23T07:34:10;96722.28;;;5.40;77.38
20710;BME280;10516;51.518;9.864;2024-02-23T07:36:36;96716.19;;;5.45;78.34
20710;BME280;10516;51.518;9.864;2024-02-23T07:39:01;96723.34;;;5.29;78.46
20710;BME280;10516;51.518;9.864;2024-02-23T07:41:28;96717.50;;;5.47;78.86
20710;BME280;10516;51.518;9.864;2024-02-23T07:43:53;96731.22;;;5.69;78.02
20710;BME280;10516;51.518;9.864;2024-02-23T07:46:19;96729.41;;;5.40;77.56
20710;BME280;10516;51.518;9.864;2024-02-23T07:48:45;96738.72;;;5.22;78.11
20710;BME280;10516;51.518;9.864;2024-02-23T07:51:13;96714.91;;;5.22;78.57
20710;BME280;10516;51.518;9.864;2024-02-23T07:53:38;96718.06;;;5.24;78.31
20710;BME280;10516;51.518;9.864;2024-02-23T07:56:04;96745.28;;;5.50;79.67
20710;BME280;10516;51.518;9.864;2024-02-23T07:58:32;96727.59;;;5.35;77.49
20710;BME280;10516;51.518;9.864;2024-02-23T08:00:57;96759.81;;;5.42;77.16
20710;BME280;10516;51.518;9.864;2024-02-23T08:03:23;96732.31;;;5.33;77.23
20710;BME280;10516;51.518;9.864;2024-02-23T08:05:48;96731.50;;;5.53;78.08
20710;BME280;10516;51.518;9.864;2024-02-23T08:08:13;96739.16;;;5.74;77.69
20710;BME280;10516;51.518;9.864;2024-02-23T08:10:39;96730.69;;;5.67;77.53
20710;BME280;10516;51.518;9.864;2024-02-23T08:13:04;96734.13;;;5.58;77.55
20710;BME280;10516;51.518;9.864;2024-02-23T08:15:30;96732.53;;;5.67;77.23
20710;BME280;10516;51.518;9.864;2024-02-23T08:17:55;96746.81;;;5.81;77.19
20710;BME280;10516;51.518;9.864;2024-02-23T08:20:21;96739.94;;;5.85;76.76
20710;BME280;10516;51.518;9.864;2024-02-23T08:22:46;96742.03;;;5.88;76.94
20710;BME280;10516;51.518;9.864;2024-02-23T08:25:11;96668.06;;;5.32;75.88
20710;BME280;10516;51.518;9.864;2024-02-23T08:27:37;96734.63;;;5.75;76.58
20710;BME280;10516;51.518;9.864;2024-02-23T08:30:04;96750.47;;;6.00;76.33
20710;BME280;10516;51.518;9.864;2024-02-23T08:32:29;96741.78;;;5.89;76.25
20710;BME280;10516;51.518;9.864;2024-02-23T08:34:55;96753.66;;;5.97;74.62
20710;BME280;10516;51.518;9.864;2024-02-23T08:37:25;96768.97;;;6.10;75.04
20710;BME280;10516;51.518;9.864;2024-02-23T08:39:51;96754.69;;;6.06;74.92
20710;BME280;10516;51.518;9.864;2024-02-23T08:42:16;96749.94;;;5.98;74.68
20710;BME280;10516;51.518;9.864;2024-02-23T08:44:42;96749.91;;;6.03;75.26
20710;BME280;10516;51.518;9.864;2024-02-23T08:47:07;96754.44;;;6.02;74.18
20710;BME280;10516;51.518;9.864;2024-02-23T08:49:33;96763.44;;;5.96;74.63
20710;BME280;10516;51.518;9.864;2024-02-23T08:51:58;96776.38;;;6.08;75.05
20710;BME280;10516;51.518;9.864;2024-02-23T08:54:24;96761.03;;;6.05;74.46
20710;BME280;10516;51.518;9.864;2024-02-23T08:56:49;96731.47;;;5.73;73.95
20710;BME280;10516;51.518;9.864;2024-02-23T08:59:14;96771.66;;;6.00;75.11
20710;BME280;10516;51.518;9.864;2024-02-23T09:01:40;96775.06;;;6.11;74.29
20710;BME280;10516;51.518;9.864;2024-02-23T09:04:05;96738.88;;;5.81;73.71
20710;BME280;10516;51.518;9.864;2024-02-23T09:06:30;96727.19;;;5.82;74.22
20710;BME280;10516;51.518;9.864;2024-02-23T09:08:58;96758.13;;;6.01;73.17
20710;BME280;10516;51.518;9.864;2024-02-23T09:11:23;96753.09;;;6.05;73.63
20710;BME280;10516;51.518;9.864;2024-02-23T09:13:48;96749.41;;;6.01;73.41
20710;BME280;10516;51.518;9.864;2024-02-23T09:16:14;96747.59;;;5.91;73.96
20710;BME280;10516;51.518;9.864;2024-02-23T09:18:40;96752.38;;;5.84;72.49
20710;BME280;10516;51.518;9.864;2024-02-23T09:21:05;96711.09;;;5.68;72.94
20710;BME280;10516;51.518;9.864;2024-02-23T09:23:31;96737.03;;;5.76;73.74
20710;BME280;10516;51.518;9.864;2024-02-23T09:25:57;96770.38;;;5.87;72.93
20710;BME280;10516;51.518;9.864;2024-02-23T09:28:23;96752.63;;;5.83;73.12
20710;BME280;10516;51.518;9.864;2024-02-23T09:30:48;96751.81;;;5.82;72.70
20710;BME280;10516;51.518;9.864;2024-02-23T09:33:13;96752.88;;;5.81;74.11
20710;BME280;10516;51.518;9.864;2024-02-23T09:35:39;96734.91;;;5.73;73.21
20710;BME280;10516;51.518;9.864;2024-02-23T09:38:04;96739.38;;;5.78;71.92
20710;BME280;10516;51.518;9.864;2024-02-23T09:40:30;96743.59;;;5.79;72.56
20710;BME280;10516;51.518;9.864;2024-02-23T09:42:56;96736.22;;;5.86;72.41
20710;BME280;10516;51.518;9.864;2024-02-23T09:45:24;96733.84;;;5.74;72.04
20710;BME280;10516;51.518;9.864;2024-02-23T09:47:49;96737.81;;;5.87;71.61
20710;BME280;10516;51.518;9.864;2024-02-23T09:50:15;96713.22;;;5.66;72.78
20710;BME280;10516;51.518;9.864;2024-02-23T09:52:43;96725.63;;;5.76;73.13
20710;BME280;10516;51.518;9.864;2024-02-23T09:55:08;96731.72;;;5.76;69.28
20710;BME280;10516;51.518;9.864;2024-02-23T09:57:35;96740.47;;;5.72;69.32
20710;BME280;10516;51.518;9.864;2024-02-23T10:00:01;96720.38;;;5.56;69.17
20710;BME280;10516;51.518;9.864;2024-02-23T10:02:31;96705.31;;;5.61;69.30
20710;BME280;10516;51.518;9.864;2024-02-23T10:04:58;96748.94;;;5.64;68.60
20710;BME280;10516;51.518;9.864;2024-02-23T10:07:25;96728.59;;;5.54;68.18
20710;BME280;10516;51.518;9.864;2024-02-23T10:09:50;96743.41;;;5.65;67.62
20710;BME280;10516;51.518;9.864;2024-02-23T10:12:16;96724.63;;;5.57;68.52
20710;BME280;10516;51.518;9.864;2024-02-23T10:14:42;96735.13;;;5.82;69.25
20710;BME280;10516;51.518;9.864;2024-02-23T10:17:07;96711.09;;;5.73;68.64
20710;BME280;10516;51.518;9.864;2024-02-23T10:19:33;96712.44;;;5.61;67.41
20710;BME280;10516;51.518;9.864;2024-02-23T10:21:59;96721.69;;;5.68;67.81
20710;BME280;10516;51.518;9.864;2024-02-23T10:24:24;96734.91;;;5.68;66.94
20710;BME280;10516;51.518;9.864;2024-02-23T10:26:51;96751.03;;;5.82;68.59
20710;BME280;10516;51.518;9.864;2024-02-23T10:29:16;96688.38;;;5.57;67.73
20710;BME280;10516;51.518;9.864;2024-02-23T10:31:43;96728.28;;;5.71;67.05
20710;BME280;10516;51.518;9.864;2024-02-23T10:34:13;96733.31;;;5.72;66.44
20710;BME280;10516;51.518;9.864;2024-02-23T10:36:43;96710.09;;;5.54;67.22
20710;BME280;10516;51.518;9.864;2024-02-23T10:39:10;96728.06;;;5.62;66.25
20710;BME280;10516;51.518;9.864;2024-02-23T10:41:36;96744.19;;;5.51;66.32
20710;BME280;10516;51.518;9.864;2024-02-23T10:44:05;96744.16;;;5.66;66.48
20710;BME280;10516;51.518;9.864;2024-02-23T10:46:31;96744.44;;;5.64;66.82
20710;BME280;10516;51.518;9.864;2024-02-23T10:48:58;96748.38;;;5.82;67.58
20710;BME280;10516;51.518;9.864;2024-02-23T10:51:25;96766.13;;;5.66;66.69
20710;BME280;10516;51.518;9.864;2024-02-23T10:53:52;96744.44;;;5.59;67.46
20710;BME280;10516;51.518;9.864;2024-02-23T10:56:17;96765.91;;;5.68;67.38
20710;BME280;10516;51.518;9.864;2024-02-23T10:58:43;96753.16;;;5.80;67.98
20710;BME280;10516;51.518;9.864;2024-02-23T11:01:09;96742.56;;;5.75;67.86
20710;BME280;10516;51.518;9.864;2024-02-23T11:03:37;96735.41;;;5.75;67.62
20710;BME280;10516;51.518;9.864;2024-02-23T11:06:06;96751.81;;;5.92;68.04
20710;BME280;10516;51.518;9.864;2024-02-23T11:08:35;96715.25;;;5.99;67.83
20710;BME280;10516;51.518;9.864;2024-02-23T11:11:10;96720.03;;;5.97;67.99
20710;BME280;10516;51.518;9.864;2024-02-23T11:13:37;96737.47;;;6.03;66.65
20710;BME280;10516;51.518;9.864;2024-02-23T11:16:06;96725.88;;;5.89;66.89
20710;BME280;10516;51.518;9.864;2024-02-23T11:18:35;96739.63;;;5.96;66.88
20710;BME280;10516;51.518;9.864;2024-02-23T11:21:02;96722.16;;;6.00;66.72
20710;BME280;10516;51.518;9.864;2024-02-23T11:23:41;96719.97;;;6.13;67.06
20710;BME280;10516;51.518;9.864;2024-02-23T11:26:09;96691.19;;;5.91;65.14
20710;BME280;10516;51.518;9.864;2024-02-23T11:28:43;96728.66;;;6.18;65.21
20710;BME280;10516;51.518;9.864;2024-02-23T11:31:15;96717.88;;;6.04;65.56
20710;BME280;10516;51.518;9.864;2024-02-23T11:33:54;96740.63;;;6.16;64.40
20710;BME280;10516;51.518;9.864;2024-02-23T11:36:23;96750.84;;;6.32;64.53
20710;BME280;10516;51.518;9.864;2024-02-23T11:38:52;96745.56;;;6.32;64.44
20710;BME280;10516;51.518;9.864;2024-02-23T11:41:20;96727.53;;;6.34;64.39
20710;BME280;10516;51.518;9.864;2024-02-23T11:43:47;96739.69;;;6.40;64.27
20710;BME280;10516;51.518;9.864;2024-02-23T11:46:15;96731.44;;;6.47;64.12
20710;BME280;10516;51.518;9.864;2024-02-23T11:48:40;96717.78;;;6.25;64.15
20710;BME280;10516;51.518;9.864;2024-02-23T11:51:06;96730.19;;;6.29;63.89
20710;BME280;10516;51.518;9.864;2024-02-23T11:53:32;96741.22;;;6.51;63.78
20710;BME280;10516;51.518;9.864;2024-02-23T11:55:58;96766.09;;;6.60;64.53
20710;BME280;10516;51.518;9.864;2024-02-23T11:58:23;96737.34;;;6.34;63.80
20710;BME280;10516;51.518;9.864;2024-02-23T12:00:51;96748.91;;;6.53;63.29
20710;BME280;10516;51.518;9.864;2024-02-23T12:03:16;96752.22;;;6.73;64.05
20710;BME280;10516;51.518;9.864;2024-02-23T12:05:42;96711.44;;;6.64;65.35
20710;BME280;10516;51.518;9.864;2024-02-23T12:08:09;96757.09;;;7.00;63.63
20710;BME280;10516;51.518;9.864;2024-02-23T12:10:35;96749.03;;;7.10;62.79
20710;BME280;10516;51.518;9.864;2024-02-23T12:13:01;96712.13;;;6.85;63.85
20710;BME280;10516;51.518;9.864;2024-02-23T12:15:28;96749.66;;;6.97;62.48
20710;BME280;10516;51.518;9.864;2024-02-23T12:17:53;96735.22;;;6.79;61.29
20710;BME280;10516;51.518;9.864;2024-02-23T12:20:19;96743.84;;;6.95;61.60
20710;BME280;10516;51.518;9.864;2024-02-23T12:22:47;96726.31;;;6.60;61.75
20710;BME280;10516;51.518;9.864;2024-02-23T12:25:12;96746.00;;;6.88;62.66
20710;BME280;10516;51.518;9.864;2024-02-23T12:27:38;96750.81;;;6.86;63.27
20710;BME280;10516;51.518;9.864;2024-02-23T12:30:04;96749.97;;;6.91;62.65
20710;BME280;10516;51.518;9.864;2024-02-23T12:32:29;96758.53;;;6.82;62.06
20710;BME280;10516;51.518;9.864;2024-02-23T12:34:55;96761.09;;;6.93;62.25
20710;BME280;10516;51.518;9.864;2024-02-23T12:37:21;96746.25;;;6.97;62.22
20710;BME280;10516;51.518;9.864;2024-02-23T12:39:48;96762.97;;;6.92;62.43
20710;BME280;10516;51.518;9.864;2024-02-23T12:42:13;96746.47;;;7.00;62.49
20710;BME280;10516;51.518;9.864;2024-02-23T12:44:39;96759.06;;;7.18;62.39
20710;BME280;10516;51.518;9.864;2024-02-23T12:47:04;96747.38;;;7.19;62.61
20710;BME280;10516;51.518;9.864;2024-02-23T12:49:30;96768.94;;;7.41;62.29
20710;BME280;10516;51.518;9.864;2024-02-23T12:51:56;96747.66;;;7.18;62.65
20710;BME280;10516;51.518;9.864;2024-02-23T12:54:21;96771.13;;;7.34;60.77
20710;BME280;10516;51.518;9.864;2024-02-23T12:56:46;96741.72;;;7.31;59.95
20710;BME280;10516;51.518;9.864;2024-02-23T12:59:12;96747.50;;;7.38;60.92
20710;BME280;10516;51.518;9.864;2024-02-23T13:01:37;96757.13;;;7.29;60.04
20710;BME280;10516;51.518;9.864;2024-02-23T13:04:04;96756.94;;;7.20;62.14